Time;durP1;ratioP1;P1;durP2;ratioP2;P2;SDS_P1;SDS_P2;PMS_P1;PMS_P2;Temp;Humidity;BMP_temperature;BMP_pressure;BME280_temperature;BME280_humidity;BME280_pressure;Samples;Min_cycle;Max_cycle;Signal;HPM_P1;HPM_P2
2022/04/04 00:01:40;;;;;;;1.65;1.20;;;;;;;20.72;35.75;101005.66;4164156;28;20488;-72
2022/04/04 00:03:41;;;;;;;;;;;;;;;20.72;35.86;101016.78;4182784;28;20041;-72
2022/04/04 00:05:51;;;;;;;1.20;1.10;;;;;;;20.76;35.93;101019.84;4181482;28;19912;-72
2022/04/04 00:07:54;;;;;;;2.53;1.15;;;;;;;20.70;35.62;101018.97;4182664;28;20091;-74
2022/04/04 00:10:02;;;;;;;1.60;1.25;;;;;;;20.73;35.97;101034.28;4183005;28;20114;-72
2022/04/04 00:12:04;;;;;;;1.60;1.45;;;;;;;20.73;36.02;101034.28;4183379;28;20029;-73
2022/04/04 00:14:06;;;;;;;1.30;1.20;;;;;;;20.72;36.07;101032.63;4182563;28;20029;-72
2022/04/04 00:16:07;;;;;;;1.30;1.20;;;;;;;20.70;35.70;101044.00;4181915;28;20098;-73
2022/04/04 00:18:11;;;;;;;2.72;1.38;;;;;;;20.69;36.01;101039.56;4181766;28;20086;-73
2022/04/04 00:20:13;;;;;;;1.33;1.10;;;;;;;20.66;36.13;101050.41;4183009;28;20094;-74
2022/04/04 00:22:15;;;;;;;1.20;1.10;;;;;;;20.55;35.77;101032.88;4183969;28;20036;-73
2022/04/04 00:24:19;;;;;;;1.23;1.00;;;;;;;20.67;35.59;101058.50;4184585;28;20049;-73
2022/04/04 00:26:21;;;;;;;1.73;1.33;;;;;;;20.67;35.62;101052.94;4181431;28;20867;-72
2022/04/04 00:28:22;;;;;;;1.48;1.30;;;;;;;20.55;35.85;101041.22;4182616;28;20079;-73
2022/04/04 00:30:24;;;;;;;3.00;1.27;;;;;;;20.63;35.97;101056.53;4182843;28;20091;-73
2022/04/04 00:32:28;;;;;;;1.90;1.38;;;;;;;20.66;35.78;101070.69;4182685;28;20095;-72
2022/04/04 00:34:33;;;;;;;2.70;1.02;;;;;;;20.66;35.62;101076.25;4182766;28;20046;-73
2022/04/04 00:36:34;;;;;;;2.10;1.45;;;;;;;20.56;35.76;101074.31;4182794;28;20601;-73
2022/04/04 00:38:36;;;;;;;1.77;1.40;;;;;;;20.44;35.71;101053.41;4183539;28;20075;-73
2022/04/04 00:40:38;;;;;;;1.50;1.40;;;;;;;20.64;35.76;101086.84;4183762;28;20484;-72
2022/04/04 00:42:40;;;;;;;2.30;1.20;;;;;;;20.61;35.65;101086.53;4183480;28;20049;-72
2022/04/04 00:44:45;;;;;;;1.33;1.20;;;;;;;20.46;35.52;101067.88;4182989;28;20037;-73
2022/04/04 00:46:50;;;;;;;1.77;1.27;;;;;;;20.64;35.76;101111.84;4166172;28;20072;-74
2022/04/04 00:48:52;;;;;;;1.13;1.07;;;;;;;20.60;35.59;101107.13;4183769;28;20406;-74
2022/04/04 00:50:54;;;;;;;1.15;1.05;;;;;;;20.64;35.58;101114.63;4182362;28;20083;-74
2022/04/04 00:52:55;;;;;;;1.70;1.38;;;;;;;20.62;35.55;101125.22;4182522;28;20040;-73
2022/04/04 00:54:57;;;;;;;3.53;1.10;;;;;;;20.63;35.43;101118.53;4164794;28;20080;-73
2022/04/04 00:57:02;;;;;;;1.33;1.23;;;;;;;20.53;35.26;101102.66;4182109;28;20381;-74
2022/04/04 00:59:05;;;;;;;1.10;1.00;;;;;;;20.64;35.58;101125.75;4182751;28;20037;-71
2022/04/04 01:01:07;;;;;;;2.55;1.33;;;;;;;20.61;35.39;101126.31;4181876;28;20033;-73
2022/04/04 01:03:08;;;;;;;1.45;1.20;;;;;;;20.62;35.61;101130.78;4164160;28;20043;-72
2022/04/04 01:05:10;;;;;;;1.05;1.00;;;;;;;20.49;35.68;101114.63;4182679;28;20090;-73
2022/04/04 01:07:12;;;;;;;1.60;1.45;;;;;;;20.60;35.59;101121.84;4183225;28;20037;-72
2022/04/04 01:09:16;;;;;;;1.70;1.40;;;;;;;20.50;35.40;101102.38;4184225;28;20041;-74
2022/04/04 01:11:18;;;;;;;1.20;1.10;;;;;;;20.56;35.63;101124.34;4168523;28;20084;-73
2022/04/04 01:13:19;;;;;;;1.50;1.40;;;;;;;20.62;35.23;101132.69;4167733;28;20473;-73
2022/04/04 01:15:23;;;;;;;1.42;1.15;;;;;;;20.61;35.24;101134.66;4184930;28;20049;-72
2022/04/04 01:17:29;;;;;;;1.30;1.20;;;;;;;20.62;35.66;101133.56;4185430;28;20091;-72
2022/04/04 01:19:31;;;;;;;2.75;1.02;;;;;;;20.62;35.50;101138.25;4185763;28;20079;-72
2022/04/04 01:21:32;;;;;;;1.10;1.00;;;;;;;20.59;35.56;101136.88;4185701;28;20103;-72
2022/04/04 01:23:43;;;;;;;1.55;1.40;;;;;;;20.59;35.29;101144.38;4183860;28;20102;-72
2022/04/04 01:25:45;;;;;;;0.98;0.98;;;;;;;20.60;35.46;101146.88;4182194;28;20094;-73
2022/04/04 01:27:46;;;;;;;1.75;1.20;;;;;;;20.60;35.30;101149.66;4184435;28;20037;-73
2022/04/04 01:29:50;;;;;;;1.50;1.40;;;;;;;20.56;35.64;101148.53;4167672;28;20068;-73
2022/04/04 01:31:55;;;;;;;0.98;0.98;;;;;;;20.59;35.38;101156.34;4182818;28;20037;-73
2022/04/04 01:33:59;;;;;;;1.20;1.10;;;;;;;20.49;35.18;101128.50;4183524;28;20091;-72
2022/04/04 01:36:01;;;;;;;1.30;1.08;;;;;;;20.56;35.09;101151.31;4181489;28;20049;-74
2022/04/04 01:38:02;;;;;;;2.10;1.23;;;;;;;20.59;35.13;101161.06;4187719;28;20045;-72
2022/04/04 01:40:06;;;;;;;1.70;1.38;;;;;;;20.59;35.06;101159.13;4186366;28;20048;-71
2022/04/04 01:42:08;;;;;;;1.90;1.40;;;;;;;20.60;35.33;101163.56;4185523;28;20500;-72
2022/04/04 01:44:11;;;;;;;2.55;1.48;;;;;;;20.60;35.12;101169.13;4165295;28;20095;-72
2022/04/04 01:46:24;;;;;;;2.70;1.30;;;;;;;20.60;35.25;101169.13;4164784;28;20045;-72
2022/04/04 01:48:26;;;;;;;2.10;1.30;;;;;;;20.59;35.25;101166.63;4166249;28;20042;-73
2022/04/04 01:50:28;;;;;;;0.88;0.88;;;;;;;20.60;35.39;101174.69;4185183;28;20045;-72
2022/04/04 01:52:30;;;;;;;2.30;1.20;;;;;;;20.61;34.97;101181.91;4186513;28;20072;-71
2022/04/04 01:54:32;;;;;;;1.40;1.30;;;;;;;20.48;35.08;101162.97;4169584;28;20076;-73
2022/04/04 01:56:34;;;;;;;1.30;1.20;;;;;;;20.59;35.01;101184.13;4171194;28;20037;-72
2022/04/04 01:58:36;;;;;;;1.17;1.08;;;;;;;20.62;35.34;101189.16;4187856;28;20156;-72
2022/04/04 02:00:47;;;;;;;1.45;1.20;;;;;;;20.60;35.08;101180.25;4187800;28;20064;-73
2022/04/04 02:02:49;;;;;;;1.33;1.20;;;;;;;20.64;35.08;101181.38;4189491;28;20037;-71
2022/04/04 02:04:51;;;;;;;1.08;1.00;;;;;;;20.64;35.06;101200.84;4188505;28;20037;-73
2022/04/04 02:06:54;;;;;;;1.67;1.15;;;;;;;20.61;35.12;101181.91;4186580;28;20049;-72
2022/04/04 02:08:55;;;;;;;1.95;1.40;;;;;;;20.63;35.24;101198.34;4186608;28;20131;-72
2022/04/04 02:10:58;;;;;;;1.42;1.33;;;;;;;20.64;34.98;101186.09;4186073;28;20040;-69
2022/04/04 02:13:00;;;;;;;1.13;1.10;;;;;;;20.65;35.04;101188.59;4170716;28;20038;-73
2022/04/04 02:15:02;;;;;;;1.30;1.20;;;;;;;20.65;35.31;101193.31;4187535;28;20041;-71
2022/04/04 02:17:06;;;;;;;1.20;1.10;;;;;;;20.65;35.15;101199.72;4176801;28;20045;-72
2022/04/04 02:19:08;;;;;;;1.20;1.10;;;;;;;20.66;35.08;101190.25;4192479;28;20087;-73
2022/04/04 02:21:10;;;;;;;1.40;1.30;;;;;;;20.65;35.32;101191.38;4192659;28;20044;-73
2022/04/04 02:23:17;;;;;;;0.88;0.85;;;;;;;20.62;35.00;101189.16;4174736;28;20057;-73
2022/04/04 02:25:19;;;;;;;1.13;1.02;;;;;;;20.67;34.89;101197.53;4192747;28;20045;-72
2022/04/04 02:27:33;;;;;;;1.13;1.02;;;;;;;20.68;35.02;101199.19;4194372;28;20095;-72
2022/04/04 02:29:38;;;;;;;1.70;1.17;;;;;;;20.69;34.88;101198.06;4194507;28;20082;-73
2022/04/04 02:31:42;;;;;;;1.48;1.38;;;;;;;20.69;35.19;101200.03;4194581;28;20098;-74
2022/04/04 02:33:44;;;;;;;1.20;1.10;;;;;;;20.69;34.88;101197.25;4194002;28;20037;-71
2022/04/04 02:35:53;;;;;;;1.10;1.00;;;;;;;20.71;35.30;101197.78;4193896;28;20068;-72
2022/04/04 02:37:55;;;;;;;1.10;1.00;;;;;;;20.71;34.77;101197.78;4191273;28;20045;-73
2022/04/04 02:39:57;;;;;;;1.20;1.10;;;;;;;20.71;34.84;101209.78;4191248;28;20037;-73
2022/04/04 02:41:59;;;;;;;1.33;1.10;;;;;;;20.71;34.93;101214.47;4192604;28;20070;-73
2022/04/04 02:44:07;;;;;;;1.27;0.98;;;;;;;20.71;35.18;101207.00;4193598;28;20079;-73
2022/04/04 02:46:12;;;;;;;1.38;1.20;;;;;;;20.68;34.80;101198.34;4172158;28;20037;-72
2022/04/04 02:48:17;;;;;;;1.33;1.23;;;;;;;20.72;34.78;101222.56;4190379;28;20087;-71
2022/04/04 02:50:28;;;;;;;3.22;1.10;;;;;;;20.69;34.86;101214.75;4171240;28;20042;-72
2022/04/04 02:52:29;;;;;;;1.02;0.93;;;;;;;20.73;35.02;101213.09;4191906;28;20032;-73
2022/04/04 02:54:34;;;;;;;1.40;0.98;;;;;;;20.74;34.80;101213.94;4192354;28;20033;-73
2022/04/04 02:56:39;;;;;;;1.00;1.00;;;;;;;20.73;34.84;101218.66;4184967;28;20061;-71
2022/04/04 02:58:44;;;;;;;1.17;1.08;;;;;;;20.74;34.74;101216.72;4173343;28;20034;-74
2022/04/04 03:00:46;;;;;;;1.20;1.10;;;;;;;20.73;34.76;101213.09;4155371;28;20041;-71
2022/04/04 03:02:48;;;;;;;1.45;1.10;;;;;;;20.75;34.82;101212.81;4175770;28;20104;-71
2022/04/04 03:04:53;;;;;;;1.00;0.88;;;;;;;20.76;34.82;101217.31;4191138;28;20067;-73
2022/04/04 03:06:55;;;;;;;1.20;1.10;;;;;;;20.75;34.85;101210.88;4192910;28;20037;-72
2022/04/04 03:08:57;;;;;;;1.10;1.00;;;;;;;20.75;34.83;101219.22;4157788;28;20092;-73
2022/04/04 03:11:01;;;;;;;1.00;0.90;;;;;;;20.76;34.70;101222.84;4185386;28;20041;-73
2022/04/04 03:13:05;;;;;;;1.30;1.00;;;;;;;20.76;34.74;101220.91;4182914;28;20103;-73
2022/04/04 03:15:07;;;;;;;1.35;1.10;;;;;;;20.74;34.78;101225.91;4182180;28;20431;-75
2022/04/04 03:17:09;;;;;;;1.30;1.10;;;;;;;20.72;34.82;101219.78;4171796;28;20056;-73
2022/04/04 03:19:10;;;;;;;1.10;1.00;;;;;;;20.74;35.10;101220.34;4172290;28;20111;-73
2022/04/04 03:21:12;;;;;;;1.40;0.90;;;;;;;20.74;35.14;101219.50;4171592;28;20435;-74
2022/04/04 03:23:14;;;;;;;1.00;0.90;;;;;;;20.73;35.26;101223.41;4166163;28;20045;-73
2022/04/04 03:25:17;;;;;;;2.58;0.93;;;;;;;20.70;35.25;101219.19;4169923;28;20036;-72
2022/04/04 03:27:18;;;;;;;2.20;1.10;;;;;;;20.72;35.25;101225.34;4181113;28;20045;-74
2022/04/04 03:29:20;;;;;;;1.10;0.90;;;;;;;20.71;34.98;101226.47;4181596;28;20041;-74
2022/04/04 03:31:21;;;;;;;1.10;1.00;;;;;;;20.72;35.26;101230.91;4169334;28;20049;-74
2022/04/04 03:33:23;;;;;;;1.00;1.00;;;;;;;20.68;34.90;101232.56;4166021;28;20037;-73
2022/04/04 03:35:26;;;;;;;0.95;0.90;;;;;;;20.66;35.13;101222.81;4178561;28;20045;-72
2022/04/04 03:37:28;;;;;;;1.55;1.45;;;;;;;20.66;35.36;101222.81;4169637;28;20542;-72
2022/04/04 03:39:35;;;;;;;1.35;1.25;;;;;;;20.66;35.30;101228.38;4181688;28;20094;-73
2022/04/04 03:41:37;;;;;;;1.10;1.00;;;;;;;20.65;34.96;101221.13;4182241;28;20029;-73
2022/04/04 03:43:39;;;;;;;1.95;0.90;;;;;;;20.73;35.20;101218.66;4151842;28;20042;-73
2022/04/04 03:45:41;;;;;;;1.20;1.10;;;;;;;20.73;35.23;101226.19;4167900;28;20480;-73
2022/04/04 03:47:47;;;;;;;1.40;1.00;;;;;;;20.73;35.03;101235.34;4179434;28;20087;-73
2022/04/04 03:49:52;;;;;;;2.72;0.95;;;;;;;20.66;34.96;101214.47;4167875;28;20045;-74
2022/04/04 03:51:54;;;;;;;1.17;1.10;;;;;;;20.75;35.04;101232.28;4169008;28;20045;-72
2022/04/04 03:53:56;;;;;;;1.15;1.02;;;;;;;20.74;34.99;101237.03;4173288;28;20033;-74
2022/04/04 03:55:58;;;;;;;1.20;1.10;;;;;;;20.74;35.04;101237.03;4169814;28;20087;-74
2022/04/04 03:58:02;;;;;;;1.17;1.00;;;;;;;20.74;35.14;101236.19;4169075;28;20041;-74
2022/04/04 04:00:08;;;;;;;1.02;0.90;;;;;;;20.74;34.93;101231.47;4170119;28;20046;-73
2022/04/04 04:02:11;;;;;;;1.00;0.90;;;;;;;20.66;35.14;101222.81;4168582;28;20041;-74
2022/04/04 04:04:13;;;;;;;1.25;1.10;;;;;;;20.71;35.17;101236.72;4166988;28;20099;-74
2022/04/04 04:06:20;;;;;;;1.85;1.20;;;;;;;20.74;35.20;101237.03;4146883;28;20508;-72
2022/04/04 04:08:27;;;;;;;1.23;1.00;;;;;;;20.65;35.45;101221.97;4147392;28;20050;-73
2022/04/04 04:10:34;;;;;;;1.08;1.00;;;;;;;20.52;35.16;101203.84;4150867;28;20041;-74
2022/04/04 04:12:38;;;;;;;1.10;0.80;;;;;;;20.74;35.10;101239.81;4165947;28;20041;-73
2022/04/04 04:14:51;;;;;;;0.80;0.80;;;;;;;20.75;35.03;101238.69;4165794;28;20037;-74
2022/04/04 04:16:55;;;;;;;1.00;1.00;;;;;;;20.75;35.09;101238.69;4168071;28;20029;-73
2022/04/04 04:19:00;;;;;;;0.93;0.80;;;;;;;20.76;35.33;101240.38;4168153;28;20033;-72
2022/04/04 04:21:19;;;;;;;1.52;1.00;;;;;;;20.75;35.31;101233.13;4171304;28;20087;-73
2022/04/04 04:23:21;;;;;;;1.20;0.90;;;;;;;20.72;35.40;101233.69;4169349;28;20053;-74
2022/04/04 04:25:27;;;;;;;1.20;1.10;;;;;;;20.53;34.82;101207.47;4161522;28;20041;-72
2022/04/04 04:27:29;;;;;;;1.20;1.10;;;;;;;20.76;34.96;101254.28;4150345;28;20045;-73
2022/04/04 04:29:30;;;;;;;0.95;0.90;;;;;;;20.71;34.89;101248.72;4153232;28;20496;-74
2022/04/04 04:31:32;;;;;;;1.10;1.00;;;;;;;20.57;34.87;101219.69;4165368;28;20463;-72
2022/04/04 04:33:33;;;;;;;1.70;1.10;;;;;;;20.63;35.34;101235.31;4166503;28;20045;-73
2022/04/04 04:35:38;;;;;;;0.85;0.80;;;;;;;20.74;35.36;101259.28;4165822;28;20053;-74
2022/04/04 04:37:39;;;;;;;1.10;1.00;;;;;;;20.66;35.05;101239.47;4166333;28;20088;-73
2022/04/04 04:39:41;;;;;;;1.25;1.10;;;;;;;20.76;35.15;101264.56;4165918;28;20025;-72
2022/04/04 04:41:43;;;;;;;1.05;1.00;;;;;;;20.76;35.21;101268.19;4164658;28;20088;-73
2022/04/04 04:43:47;;;;;;;0.93;0.90;;;;;;;20.75;35.06;101266.50;4165662;28;20104;-73
2022/04/04 04:45:51;;;;;;;1.40;1.20;;;;;;;20.76;35.00;101270.13;4163890;28;20049;-72
2022/04/04 04:47:58;;;;;;;0.80;0.80;;;;;;;20.63;35.01;101252.00;4164922;28;20435;-73
2022/04/04 04:50:00;;;;;;;1.10;1.00;;;;;;;20.76;35.16;101272.91;4165695;28;20030;-72
2022/04/04 04:52:02;;;;;;;2.15;0.90;;;;;;;20.75;35.11;101272.06;4165556;28;20041;-74
2022/04/04 04:54:04;;;;;;;0.95;0.90;;;;;;;20.75;35.21;101272.06;4159927;28;20041;-73
2022/04/04 04:56:11;;;;;;;1.33;1.23;;;;;;;20.75;35.08;101272.06;4165707;28;20103;-73
2022/04/04 04:58:12;;;;;;;1.25;1.00;;;;;;;20.75;34.85;101271.22;4166020;28;20286;-73
2022/04/04 05:00:16;;;;;;;1.58;1.25;;;;;;;20.76;34.91;101272.91;4159028;28;20049;-73
2022/04/04 05:02:18;;;;;;;0.80;0.80;;;;;;;20.76;34.73;101272.91;4150640;28;20034;-72
2022/04/04 05:04:20;;;;;;;1.48;0.95;;;;;;;20.74;35.17;101275.97;4159438;28;20022;-72
2022/04/04 05:06:21;;;;;;;1.02;1.02;;;;;;;20.75;35.21;101272.06;4150172;28;20096;-74
2022/04/04 05:08:23;;;;;;;0.80;0.80;;;;;;;20.76;35.04;101279.31;4173574;28;20046;-72
2022/04/04 05:10:24;;;;;;;1.08;0.98;;;;;;;20.74;34.80;101270.38;4164524;28;20062;-72
2022/04/04 05:12:26;;;;;;;0.70;0.70;;;;;;;20.76;35.05;101270.97;4171110;28;20021;-72
2022/04/04 05:14:28;;;;;;;0.90;0.90;;;;;;;20.75;34.94;101265.66;4180763;28;20049;-73
2022/04/04 05:16:30;;;;;;;0.93;0.90;;;;;;;20.73;34.64;101279.84;4162977;28;20037;-72
2022/04/04 05:18:32;;;;;;;0.80;0.80;;;;;;;20.76;35.05;101284.03;4181522;28;20025;-73
2022/04/04 05:20:43;;;;;;;1.05;0.95;;;;;;;20.75;34.85;101283.19;4181398;28;20025;-73
2022/04/04 05:22:45;;;;;;;1.13;1.02;;;;;;;20.76;34.85;101282.09;4181529;28;20087;-73
2022/04/04 05:24:49;;;;;;;1.13;1.05;;;;;;;20.77;34.78;101291.28;4172721;28;20045;-73
2022/04/04 05:26:51;;;;;;;1.05;1.02;;;;;;;20.76;34.81;101276.53;4164107;28;20103;-73
2022/04/04 05:28:52;;;;;;;1.00;1.00;;;;;;;20.75;34.75;101288.75;4164072;28;20037;-73
2022/04/04 05:30:53;;;;;;;1.50;0.93;;;;;;;20.70;35.01;101272.03;4164890;28;20469;-73
2022/04/04 05:32:55;;;;;;;1.10;1.00;;;;;;;20.75;34.96;101283.19;4164728;28;20043;-73
2022/04/04 05:34:56;;;;;;;1.00;1.00;;;;;;;20.76;34.78;101279.31;4163999;28;20046;-72
2022/04/04 05:36:58;;;;;;;1.80;1.00;;;;;;;20.76;34.75;101284.88;4164130;28;20042;-73
2022/04/04 05:39:03;;;;;;;1.05;1.05;;;;;;;20.70;34.96;101277.59;4163872;28;20041;-73
2022/04/04 05:41:08;;;;;;;0.93;0.90;;;;;;;20.76;34.57;101296.00;4163756;28;20046;-73
2022/04/04 05:43:09;;;;;;;0.80;0.80;;;;;;;20.75;34.63;101299.88;4164283;28;20045;-73
2022/04/04 05:45:11;;;;;;;0.80;0.80;;;;;;;20.70;34.88;101297.06;4164017;28;20523;-73
2022/04/04 05:47:19;;;;;;;0.93;0.85;;;;;;;20.68;34.73;101290.13;4164315;28;20046;-72
2022/04/04 05:49:21;;;;;;;1.60;1.10;;;;;;;20.64;34.81;101281.47;4164135;28;20080;-72
2022/04/04 05:51:22;;;;;;;0.90;0.90;;;;;;;20.71;34.53;101293.22;4167124;28;20550;-72
2022/04/04 05:53:23;;;;;;;1.27;1.00;;;;;;;20.74;34.74;101306.53;4167133;28;20045;-72
2022/04/04 05:55:25;;;;;;;0.80;0.80;;;;;;;20.66;34.87;101298.72;4167016;28;20115;-72
2022/04/04 05:57:29;;;;;;;0.70;0.70;;;;;;;20.73;34.79;101302.09;4167838;28;20083;-73
2022/04/04 05:59:33;;;;;;;0.80;0.80;;;;;;;20.76;34.50;101307.13;4167963;28;20029;-74
2022/04/04 06:01:35;;;;;;;2.10;0.85;;;;;;;20.68;34.43;101293.72;4176606;28;20041;-73
2022/04/04 06:03:36;;;;;;;0.88;0.80;;;;;;;20.62;34.68;101289.25;4184252;28;20021;-72
2022/04/04 06:05:38;;;;;;;0.80;0.75;;;;;;;20.74;34.85;101300.97;4183041;28;20045;-72
2022/04/04 06:07:43;;;;;;;0.82;0.82;;;;;;;20.75;34.51;101296.25;4183700;28;20391;-72
2022/04/04 06:09:44;;;;;;;0.90;0.90;;;;;;;20.75;34.59;101294.31;4177856;28;20103;-72
2022/04/04 06:11:47;;;;;;;0.95;0.75;;;;;;;20.64;34.60;101278.69;4167137;28;20041;-72
2022/04/04 06:13:51;;;;;;;2.03;0.80;;;;;;;20.76;34.39;101306.28;4166994;28;20107;-73
2022/04/04 06:15:53;;;;;;;0.87;0.83;;;;;;;20.74;34.62;101302.94;4168361;28;20037;-72
2022/04/04 06:17:54;;;;;;;0.80;0.80;;;;;;;20.76;34.36;101306.28;4166587;28;20259;-72
2022/04/04 06:19:56;;;;;;;1.23;1.00;;;;;;;20.75;34.51;101311.00;4173705;28;20107;-72
2022/04/04 06:21:58;;;;;;;1.05;0.98;;;;;;;20.75;34.81;101313.78;4182301;28;20091;-72
2022/04/04 06:23:59;;;;;;;0.80;0.70;;;;;;;20.74;34.67;101303.75;4181314;28;20095;-73
2022/04/04 06:26:01;;;;;;;0.77;0.77;;;;;;;20.73;34.69;101307.66;4170860;28;20040;-72
2022/04/04 06:28:03;;;;;;;0.80;0.63;;;;;;;20.74;34.79;101314.88;4182847;28;20032;-72
2022/04/04 06:30:06;;;;;;;1.50;0.70;;;;;;;20.75;34.60;101324.06;4180441;28;20037;-72
2022/04/04 06:32:09;;;;;;;0.68;0.68;;;;;;;20.74;34.41;101319.63;4177305;28;20037;-72
2022/04/04 06:34:15;;;;;;;1.00;0.80;;;;;;;20.72;34.70;101319.91;4166571;28;20034;-72
2022/04/04 06:36:17;;;;;;;1.48;0.95;;;;;;;20.72;34.54;101325.47;4170408;28;20029;-72
2022/04/04 06:38:18;;;;;;;0.77;0.77;;;;;;;20.72;34.39;101328.25;4178467;28;20118;-72
2022/04/04 06:40:22;;;;;;;0.95;0.80;;;;;;;20.69;34.55;101325.16;4166650;28;20103;-72
2022/04/04 06:42:27;;;;;;;0.88;0.80;;;;;;;20.65;34.54;101329.59;4167397;28;20477;-73
2022/04/04 06:44:29;;;;;;;1.10;0.80;;;;;;;20.58;34.38;101321.50;4182511;28;20461;-73
2022/04/04 06:46:30;;;;;;;0.73;0.73;;;;;;;20.69;34.70;101339.91;4179156;28;20074;-73
2022/04/04 06:48:34;;;;;;;1.00;0.80;;;;;;;20.71;34.42;101359.09;4167135;28;20111;-72
2022/04/04 06:50:35;;;;;;;0.87;0.87;;;;;;;20.70;34.54;101358.25;4169403;28;20477;-73
2022/04/04 06:52:37;;;;;;;1.45;1.00;;;;;;;20.71;34.15;101359.09;4157606;28;20582;-73
2022/04/04 06:54:38;;;;;;;1.30;1.00;;;;;;;20.62;34.31;101333.75;4165779;28;20087;-73
2022/04/04 06:56:40;;;;;;;0.57;0.57;;;;;;;20.70;34.39;101352.69;4174043;28;20029;-73
2022/04/04 06:58:41;;;;;;;1.02;0.70;;;;;;;20.66;34.40;101339.59;4182828;28;20041;-73
2022/04/04 07:00:45;;;;;;;0.80;0.80;;;;;;;20.68;34.17;101354.91;4182184;28;20064;-73
2022/04/04 07:02:57;;;;;;;0.85;0.63;;;;;;;20.68;34.32;101348.53;4181346;28;20037;-73
2022/04/04 07:04:59;;;;;;;1.20;0.60;;;;;;;20.68;34.49;101348.53;4164557;28;20471;-73
2022/04/04 07:07:00;;;;;;;0.70;0.70;;;;;;;20.65;34.63;101349.88;4182032;28;20033;-73
2022/04/04 07:09:02;;;;;;;1.05;0.77;;;;;;;20.63;34.54;101348.50;4182598;28;20021;-73
2022/04/04 07:11:03;;;;;;;0.70;0.70;;;;;;;20.67;34.48;101358.81;4177018;28;20095;-73
2022/04/04 07:13:10;;;;;;;0.90;0.90;;;;;;;20.67;34.63;101358.81;4166107;28;20049;-73
2022/04/04 07:15:12;;;;;;;1.05;0.90;;;;;;;20.68;34.56;101366.03;4167712;28;20033;-73
2022/04/04 07:17:16;;;;;;;0.65;0.60;;;;;;;20.67;34.42;101364.38;4182855;28;20032;-73
2022/04/04 07:19:17;;;;;;;0.70;0.70;;;;;;;20.66;34.52;101370.19;4182026;28;20091;-73
2022/04/04 07:21:19;;;;;;;0.60;0.60;;;;;;;20.66;34.48;101362.66;4182861;28;20078;-72
2022/04/04 07:23:21;;;;;;;0.80;0.60;;;;;;;20.64;34.13;101359.34;4181588;28;20114;-73
2022/04/04 07:25:22;;;;;;;1.00;0.80;;;;;;;20.66;34.40;101371.00;4181683;28;20542;-72
2022/04/04 07:27:24;;;;;;;0.77;0.70;;;;;;;20.64;34.49;101370.47;4162142;28;20099;-72
2022/04/04 07:29:25;;;;;;;1.95;0.80;;;;;;;20.58;34.56;101360.41;4161202;28;20625;-73
2022/04/04 07:31:27;;;;;;;0.93;0.90;;;;;;;20.56;34.46;101357.88;4147730;28;20481;-71
2022/04/04 07:33:28;;;;;;;0.70;0.70;;;;;;;20.66;34.36;101375.75;4166237;28;20029;-72
2022/04/04 07:35:30;;;;;;;0.90;0.73;;;;;;;20.66;34.41;101378.53;4165511;28;20037;-73
2022/04/04 07:37:31;;;;;;;1.02;0.60;;;;;;;20.64;34.11;101376.03;4165722;28;20443;-72
2022/04/04 07:39:33;;;;;;;0.80;0.80;;;;;;;20.65;34.20;101382.41;4166066;28;20033;-73
2022/04/04 07:41:34;;;;;;;0.70;0.70;;;;;;;20.63;34.42;101379.09;4165871;28;20033;-73
2022/04/04 07:43:36;;;;;;;0.60;0.60;;;;;;;20.65;34.25;101388.81;4166022;28;20083;-74
2022/04/04 07:45:37;;;;;;;2.53;0.85;;;;;;;20.65;34.46;101394.38;4165057;28;20052;-73
2022/04/04 07:47:39;;;;;;;0.90;0.82;;;;;;;20.57;34.02;101380.97;4165545;28;20099;-73
2022/04/04 07:49:40;;;;;;;0.70;0.70;;;;;;;20.65;33.98;101396.31;4166188;28;20037;-73
2022/04/04 07:51:42;;;;;;;0.75;0.70;;;;;;;20.63;34.30;101392.97;4165036;28;20041;-73
2022/04/04 07:53:43;;;;;;;0.85;0.80;;;;;;;20.64;34.35;101401.06;4165335;28;20080;-73
2022/04/04 07:55:45;;;;;;;0.80;0.80;;;;;;;20.63;34.11;101391.03;4165928;28;20075;-73
2022/04/04 07:57:46;;;;;;;1.02;0.95;;;;;;;20.62;33.82;101397.72;4165024;28;20087;-73
2022/04/04 07:59:53;;;;;;;1.23;0.80;;;;;;;20.56;34.10;101390.41;4165380;28;20037;-73
2022/04/04 08:02:00;;;;;;;0.85;0.85;;;;;;;20.63;34.30;101396.59;4165857;28;20041;-73
2022/04/04 08:04:02;;;;;;;0.82;0.70;;;;;;;20.26;34.08;101332.66;4168003;28;20029;-73
2022/04/04 08:06:03;;;;;;;0.98;0.90;;;;;;;20.63;34.15;101393.81;4181272;28;20041;-73
2022/04/04 08:08:05;;;;;;;0.77;0.70;;;;;;;20.57;34.25;101380.97;4181020;28;20558;-73
2022/04/04 08:10:07;;;;;;;0.73;0.73;;;;;;;20.52;33.91;101367.03;4179316;28;20044;-73
2022/04/04 08:12:09;;;;;;;0.82;0.80;;;;;;;20.62;33.98;101389.38;4181838;28;20032;-73
2022/04/04 08:14:11;;;;;;;0.70;0.70;;;;;;;20.61;34.14;101393.22;4180440;28;20045;-73
2022/04/04 08:16:12;;;;;;;0.85;0.82;;;;;;;20.60;33.75;101386.00;4179132;28;20037;-73
2022/04/04 08:18:14;;;;;;;0.77;0.63;;;;;;;20.58;34.21;101388.22;4174646;28;20084;-73
2022/04/04 08:20:17;;;;;;;0.95;0.90;;;;;;;20.51;34.12;101382.88;4175518;28;20036;-73
2022/04/04 08:22:19;;;;;;;0.90;0.63;;;;;;;20.60;33.93;101391.56;4181397;28;20094;-73
2022/04/04 08:24:21;;;;;;;0.90;0.90;;;;;;;20.60;33.76;101394.34;4166140;28;20049;-74
2022/04/04 08:26:22;;;;;;;1.02;0.88;;;;;;;20.60;33.85;101402.69;4175110;28;20111;-73
2022/04/04 08:28:25;;;;;;;0.90;0.85;;;;;;;20.15;34.06;101323.38;4176383;28;20078;-73
2022/04/04 08:30:26;;;;;;;0.82;0.60;;;;;;;20.60;33.89;101397.13;4164927;28;20554;-73
2022/04/04 08:32:28;;;;;;;0.75;0.70;;;;;;;20.59;34.04;101400.19;4167493;28;20041;-73
2022/04/04 08:34:29;;;;;;;0.70;0.70;;;;;;;20.58;34.11;101404.91;4181550;28;20079;-74
2022/04/04 08:36:31;;;;;;;0.88;0.88;;;;;;;20.55;33.70;101389.59;4181703;28;20025;-73
2022/04/04 08:38:33;;;;;;;0.73;0.73;;;;;;;20.23;33.78;101347.91;4181044;28;20045;-73
2022/04/04 08:40:38;;;;;;;0.98;0.90;;;;;;;20.58;33.95;101398.50;4180856;28;20427;-73
2022/04/04 08:42:40;;;;;;;;;;;;;;;20.54;33.83;101400.97;4181621;28;20037;-73
2022/04/04 08:44:42;;;;;;;0.77;0.70;;;;;;;20.59;33.78;101408.53;4180540;28;19913;-73
2022/04/04 08:46:47;;;;;;;1.75;1.40;;;;;;;20.58;34.02;101404.91;4177394;28;20025;-73
2022/04/04 08:48:48;;;;;;;0.85;0.85;;;;;;;20.58;33.77;101402.13;4166446;28;20100;-73
2022/04/04 08:50:52;;;;;;;0.60;0.60;;;;;;;20.56;33.82;101402.38;4164568;28;20050;-73
2022/04/04 08:52:54;;;;;;;0.70;0.70;;;;;;;20.55;33.57;101400.72;4180039;28;20078;-73
2022/04/04 08:54:55;;;;;;;1.02;0.80;;;;;;;20.55;33.64;101411.00;4180223;28;20083;-73
2022/04/04 08:56:57;;;;;;;0.90;0.88;;;;;;;20.54;33.70;101412.94;4181154;28;20087;-73
2022/04/04 08:58:58;;;;;;;0.82;0.82;;;;;;;20.51;34.04;101416.25;4183008;28;20049;-73
2022/04/04 09:01:00;;;;;;;0.70;0.70;;;;;;;20.54;33.54;101414.88;4183024;28;20484;-73
2022/04/04 09:03:04;;;;;;;0.80;0.70;;;;;;;20.52;33.91;101417.06;4184676;28;20025;-73
2022/04/04 09:05:07;;;;;;;0.73;0.73;;;;;;;20.52;34.05;101429.03;4168421;28;20037;-72
2022/04/04 09:07:13;;;;;;;0.60;0.60;;;;;;;20.51;33.75;101427.38;4167089;28;20084;-73
2022/04/04 09:09:25;;;;;;;0.70;0.70;;;;;;;20.42;33.88;101415.03;4168473;28;20041;-73
2022/04/04 09:11:26;;;;;;;0.60;0.60;;;;;;;20.51;33.60;101432.94;4165090;28;20046;-73
2022/04/04 09:13:29;;;;;;;0.93;0.73;;;;;;;20.51;33.81;101432.94;4165252;28;20030;-73
2022/04/04 09:15:49;;;;;;;0.77;0.77;;;;;;;20.49;33.75;101437.09;4164440;28;20054;-73
2022/04/04 09:17:52;;;;;;;1.90;0.85;;;;;;;20.50;33.73;101434.03;4147539;28;20169;-73
2022/04/04 09:19:57;;;;;;;0.73;0.73;;;;;;;20.51;33.84;101432.94;4164699;28;20041;-74
2022/04/04 09:22:13;;;;;;;0.63;0.63;;;;;;;20.50;33.95;101447.94;4164179;28;20038;-73
2022/04/04 09:24:14;;;;;;;;;;;;;;;20.49;33.68;101451.00;4164230;28;20098;-73
2022/04/04 09:26:34;;;;;;;0.63;0.63;;;;;;;20.46;33.53;101451.47;4167331;28;20332;-73
2022/04/04 09:28:35;;;;;;;0.60;0.60;;;;;;;20.51;33.92;101459.91;4167914;28;20088;-73
2022/04/04 09:30:37;;;;;;;0.85;0.80;;;;;;;20.46;33.97;101457.88;4168480;28;20080;-73
2022/04/04 09:32:44;;;;;;;1.10;0.95;;;;;;;20.49;33.74;101476.00;4167841;28;20504;-73
2022/04/04 09:35:08;;;;;;;0.68;0.68;;;;;;;20.49;33.55;101476.84;4166872;28;20182;-73